METAR AND TAF INFORMATION
METAR FOR BIAR
ADDS - METARS form results

(1924 UTC 26 April 2018)
Data provider http://aviationweather.gov/adds/metars/
 
METAR text: BIAR 261900Z 08006KT 040V100 9999 OVC037 04/M03 Q1006
Conditions at: BIAR (AKUREYRI , IS) observed 1900 UTC 26 April 2018
Temperature: 4.0°C (39°F)
Dewpoint: -3.0°C (27°F) [RH = 60%]
Pressure (altimeter): 29.70 inches Hg (1006.0 mb)
Winds: from the E (80 degrees) at 7 MPH (6 knots; 3.1 m/s)
Visibility: 6 or more miles (10+ km)
Ceiling: 3700 feet AGL
Clouds: overcast cloud deck at 3700 feet AGL
Weather: no significant weather observed at this time

Forecast for: BIAR (AKUREYRI , IS)
Text: TAF BIAR 261618Z 2618/2718 12010KT 9999 BKN030 OVC040 TX06/2715Z TNM01/2706Z
Forecast period: 1800 UTC 26 April 2018 to 1800 UTC 27 April 2018
Forecast type: FROM: standard forecast or significant change
Winds: from the ESE (120 degrees) at 12 MPH (10 knots; 5.2 m/s)
Visibility: 6 or more miles (10+ km)
Ceiling: 3000 feet AGL
Clouds: broken clouds at 3000 feet AGL
overcast cloud deck at 4000 feet AGL
Weather: no significant weather forecast for this period
Forecast for: BIAR (AKUREYRI , IS)
Text: TAF BIAR 261618Z 2618/2718 12010KT 9999 BKN030 OVC040 TX06/2715Z TNM01/2706Z
Forecast period: 1800 UTC 26 April 2018 to 1800 UTC 27 April 2018
Forecast type: FROM: standard forecast or significant change
Winds: from the ESE (120 degrees) at 12 MPH (10 knots; 5.2 m/s)
Visibility: 6 or more miles (10+ km)
Ceiling: 3000 feet AGL
Clouds: broken clouds at 3000 feet AGL
overcast cloud deck at 4000 feet AGL
Weather: no significant weather forecast for this period

 AIRPORT MAP

 RUNWAY INFORMATION
Runway 01 Runway length 6365 ft Runway width 148 ft
Runway elevation 7 ft Runway displaced threshold 0 ft Runway heading 355
Runway 19 Runway length 6365 ft Runway width 148 ft
Runway elevation 5 ft Runway displaced threshold 0 ft Runway heading 175

 AIRPORT FREQUENCIES
Type ACC Name REYKJAVIK Frequency 119.7 MHZ
Type RDR Name RADAR Frequency 118.7 MHZ
Type TWR Name TWR Frequency 118.2 MHZ

 AIRPORT NEAR NAVIGATION AIDS
Type VOR-DME Name Akureyri Frequency 113600 KHZ
Type NDB Name Akureyri Frequency 334 KHZ
Type NDB Name Hjalteyri Frequency 319 KHZ
Type NDB Name Hvammur Frequency 357 KHZ
Type NDB Name Botn Frequency 387 KHZ
Type NDB Name Torfur Frequency 324 KHZ



v2.6.1